Terminal Aerodrome Forecast
Issued by NWS

Home | Current Version | Previous Version | Text Only | Print | Product List | Glossary On
Versions: 1 2 3 4 5 6 7 8 9 10 11 12 13 14 15 16 17 18 19 20 21 22 23 24 25 26 27 28
000
FTAK31 PANC 042340
TAFADU
TAF
PADU 042340Z 0500/0524 11018KT 6SM -RA BR OVC015
     FM050300 18009KT P6SM SCT025 BKN035
     FM051200 14012KT P6SM BKN020 OVC035=

USA.gov is the U.S. government's official web portal to all federal, state and local government web resources and services.